Time,TemperatureF,DewpointF,PressureIn,WindDirection,WindDirectionDegrees,WindSpeedMPH,WindSpeedGustMPH,Humidity,HourlyPrecipIn,Conditions,Clouds,dailyrainin,SoftwareType,DateUTC
2017-04-23 00:14:00,48.4,44.0,29.95,South,177,0.0,0.0,86,0.00,,,0.00,weatherlink.com 1.10,2017-04-23 07:14:00,
2017-04-23 00:29:00,48.1,44.0,29.95,SE,142,0.0,0.0,87,0.00,,,0.00,weatherlink.com 1.10,2017-04-23 07:29:00,
2017-04-23 00:44:00,47.7,45.0,29.96,South,181,0.0,0.0,89,0.00,,,0.00,weatherlink.com 1.10,2017-04-23 07:44:00,
2017-04-23 01:00:00,47.6,45.0,29.95,South,172,0.0,0.0,90,0.00,,,0.00,weatherlink.com 1.10,2017-04-23 08:00:00,
2017-04-23 01:15:00,47.5,45.0,29.95,SSE,155,0.0,0.0,90,0.00,,,0.00,weatherlink.com 1.10,2017-04-23 08:15:00,
2017-04-23 01:30:00,47.6,45.0,29.94,SE,131,0.0,0.0,90,0.00,,,0.00,weatherlink.com 1.10,2017-04-23 08:30:00,
2017-04-23 01:45:00,48.0,45.0,29.94,SSW,212,0.0,0.0,89,0.00,,,0.00,weatherlink.com 1.10,2017-04-23 08:45:00,
2017-04-23 02:15:00,48.2,45.0,29.94,SSE,148,0.0,0.0,89,0.00,,,0.00,weatherlink.com 1.10,2017-04-23 09:15:00,
2017-04-23 02:30:00,48.1,45.0,29.94,South,169,0.0,0.0,90,0.00,,,0.00,weatherlink.com 1.10,2017-04-23 09:30:00,
2017-04-23 02:45:00,48.2,46.0,29.94,South,172,0.0,0.0,90,0.00,,,0.00,weatherlink.com 1.10,2017-04-23 09:45:00,
2017-04-23 03:00:00,48.4,45.0,29.93,SSE,165,0.0,0.0,89,0.00,,,0.00,weatherlink.com 1.10,2017-04-23 10:00:00,
2017-04-23 03:15:00,48.4,45.0,29.93,SE,132,0.0,0.0,89,0.00,,,0.00,weatherlink.com 1.10,2017-04-23 10:15:00,
2017-04-23 03:30:00,48.6,46.0,29.94,SW,221,0.0,0.0,89,0.00,,,0.00,weatherlink.com 1.10,2017-04-23 10:30:00,
2017-04-23 03:45:00,48.7,46.0,29.94,SSE,154,0.0,0.0,89,0.00,,,0.00,weatherlink.com 1.10,2017-04-23 10:45:00,
2017-04-23 04:00:00,48.6,46.0,29.93,South,188,0.0,0.0,90,0.00,,,0.00,weatherlink.com 1.10,2017-04-23 11:00:00,
2017-04-23 04:15:00,48.7,46.0,29.93,SW,233,0.0,2.0,89,0.00,,,0.00,weatherlink.com 1.10,2017-04-23 11:15:00,
2017-04-23 04:30:00,48.7,46.0,29.93,SSE,150,0.0,0.0,89,0.00,,,0.00,weatherlink.com 1.10,2017-04-23 11:30:00,
2017-04-23 04:45:00,48.7,45.0,29.94,SSE,162,0.0,0.0,88,0.00,,,0.00,weatherlink.com 1.10,2017-04-23 11:45:00,
2017-04-23 05:15:00,48.2,45.0,29.95,SSE,156,0.0,0.0,87,0.00,,,0.00,weatherlink.com 1.10,2017-04-23 12:15:00,
2017-04-23 05:30:00,48.2,44.0,29.95,SE,124,0.0,0.0,86,0.00,,,0.00,weatherlink.com 1.10,2017-04-23 12:30:00,
2017-04-23 05:45:00,47.9,44.0,29.95,SE,146,0.0,0.0,87,0.00,,,0.00,weatherlink.com 1.10,2017-04-23 12:45:00,
2017-04-23 06:00:00,47.8,44.0,29.94,SE,134,0.0,0.0,86,0.00,,,0.00,weatherlink.com 1.10,2017-04-23 13:00:00,
2017-04-23 06:15:00,47.7,44.0,29.95,SE,129,0.0,0.0,86,0.00,,,0.00,weatherlink.com 1.10,2017-04-23 13:15:00,
2017-04-23 06:30:00,47.5,44.0,29.95,South,180,0.0,0.0,87,0.00,,,0.00,weatherlink.com 1.10,2017-04-23 13:30:00,
2017-04-23 06:45:00,47.5,44.0,29.96,SE,124,0.0,0.0,88,0.00,,,0.00,weatherlink.com 1.10,2017-04-23 13:45:00,
2017-04-23 07:00:00,47.7,44.0,29.95,ESE,122,0.0,0.0,87,0.00,,,0.00,weatherlink.com 1.10,2017-04-23 14:00:00,
2017-04-23 07:15:00,47.7,44.0,29.95,SW,221,0.0,0.0,88,0.00,,,0.00,weatherlink.com 1.10,2017-04-23 14:15:00,
2017-04-23 07:30:00,47.7,44.0,29.95,SSE,153,0.0,0.0,88,0.00,,,0.00,weatherlink.com 1.10,2017-04-23 14:30:00,
2017-04-23 07:45:00,47.9,45.0,29.96,SW,217,0.0,0.0,88,0.00,,,0.00,weatherlink.com 1.10,2017-04-23 14:45:00,
2017-04-23 08:00:00,49.1,45.0,29.96,SW,221,0.0,0.0,86,0.00,,,0.00,weatherlink.com 1.10,2017-04-23 15:00:00,
2017-04-23 08:15:00,49.5,46.0,29.96,SSW,205,0.0,0.0,86,0.00,,,0.00,weatherlink.com 1.10,2017-04-23 15:15:00,
2017-04-23 08:30:00,51.0,46.0,29.96,South,181,0.0,4.0,82,0.00,,,0.00,weatherlink.com 1.10,2017-04-23 15:30:00,
2017-04-23 08:45:00,51.8,45.0,29.96,South,178,5.0,7.0,78,0.00,,,0.00,weatherlink.com 1.10,2017-04-23 15:45:00,
2017-04-23 09:00:00,52.0,44.0,29.96,SE,143,0.0,3.0,75,0.00,,,0.00,weatherlink.com 1.10,2017-04-23 16:00:00,
2017-04-23 09:15:00,52.5,45.0,29.96,SE,124,0.0,0.0,76,0.00,,,0.00,weatherlink.com 1.10,2017-04-23 16:15:00,
2017-04-23 09:30:00,52.8,44.0,29.96,South,191,0.0,0.0,73,0.00,,,0.00,weatherlink.com 1.10,2017-04-23 16:30:00,
2017-04-23 09:45:00,53.0,44.0,29.97,South,173,0.0,0.0,71,0.00,,,0.00,weatherlink.com 1.10,2017-04-23 16:45:00,
2017-04-23 10:00:00,53.3,44.0,29.97,SSE,150,0.0,0.0,70,0.00,,,0.00,weatherlink.com 1.10,2017-04-23 17:00:00,
2017-04-23 10:16:00,53.7,46.0,29.98,SSE,165,0.0,0.0,74,0.00,,,0.00,weatherlink.com 1.10,2017-04-23 17:16:00,
2017-04-23 10:30:00,54.3,46.0,29.98,SE,140,0.0,0.0,73,0.00,,,0.00,weatherlink.com 1.10,2017-04-23 17:30:00,
2017-04-23 10:45:00,54.7,47.0,29.98,ENE,76,0.0,0.0,74,0.00,,,0.00,weatherlink.com 1.10,2017-04-23 17:45:00,
2017-04-23 11:01:00,55.3,48.0,29.98,ESE,117,0.0,2.0,75,0.00,,,0.00,weatherlink.com 1.10,2017-04-23 18:01:00,
2017-04-23 11:16:00,55.5,45.0,29.98,SW,218,0.0,4.0,68,0.00,,,0.00,weatherlink.com 1.10,2017-04-23 18:16:00,
2017-04-23 11:31:00,55.8,48.0,29.99,SSE,167,4.0,7.0,74,0.00,,,0.00,weatherlink.com 1.10,2017-04-23 18:31:00,
2017-04-23 11:46:00,56.1,49.0,30.00,SSE,158,0.0,4.0,76,0.00,,,0.00,weatherlink.com 1.10,2017-04-23 18:46:00,
2017-04-23 12:16:00,56.8,49.0,29.99,ESE,104,0.0,7.0,75,0.00,,,0.00,weatherlink.com 1.10,2017-04-23 19:16:00,
2017-04-23 12:31:00,56.8,49.0,29.99,South,179,0.0,8.0,75,0.00,,,0.00,weatherlink.com 1.10,2017-04-23 19:31:00,
2017-04-23 12:46:00,57.2,50.0,30.00,SE,130,0.0,0.0,76,0.00,,,0.00,weatherlink.com 1.10,2017-04-23 19:46:00,
2017-04-23 13:01:00,57.4,49.0,30.00,SE,124,0.0,4.0,74,0.00,,,0.00,weatherlink.com 1.10,2017-04-23 20:01:00,
2017-04-23 13:16:00,57.3,50.0,29.99,SSE,162,0.0,0.0,77,0.00,,,0.00,weatherlink.com 1.10,2017-04-23 20:16:00,
2017-04-23 13:31:00,57.8,51.0,30.00,SE,139,0.0,0.0,78,0.00,,,0.00,weatherlink.com 1.10,2017-04-23 20:31:00,
2017-04-23 13:46:00,57.8,51.0,29.99,ESE,105,0.0,-999.0,78,-99.99,,,0.00,weatherlink.com 1.10,2017-04-23 20:46:00,
2017-04-23 14:01:00,57.7,51.0,29.99,SW,231,0.0,0.0,77,0.00,,,0.00,weatherlink.com 1.10,2017-04-23 21:01:00,
2017-04-23 14:16:00,57.9,51.0,29.99,South,188,0.0,0.0,79,0.00,,,0.00,weatherlink.com 1.10,2017-04-23 21:16:00,
2017-04-23 14:31:00,57.8,50.0,30.00,SSE,163,0.0,0.0,75,0.00,,,0.00,weatherlink.com 1.10,2017-04-23 21:31:00,
2017-04-23 14:46:00,57.9,51.0,30.00,SE,126,0.0,0.0,78,0.00,,,0.00,weatherlink.com 1.10,2017-04-23 21:46:00,
2017-04-23 15:01:00,57.9,51.0,29.99,SE,126,0.0,0.0,79,0.00,,,0.00,weatherlink.com 1.10,2017-04-23 22:01:00,
2017-04-23 15:16:00,57.6,51.0,29.99,ESE,122,0.0,0.0,78,0.00,,,0.00,weatherlink.com 1.10,2017-04-23 22:16:00,
2017-04-23 15:31:00,57.6,51.0,29.98,ESE,116,0.0,0.0,79,0.00,,,0.00,weatherlink.com 1.10,2017-04-23 22:31:00,
2017-04-23 15:46:00,58.2,52.0,29.98,SW,214,0.0,0.0,79,0.00,,,0.00,weatherlink.com 1.10,2017-04-23 22:46:00,
2017-04-23 16:01:00,58.2,52.0,29.98,SE,128,0.0,0.0,79,0.00,,,0.00,weatherlink.com 1.10,2017-04-23 23:01:00,
2017-04-23 16:16:00,58.2,52.0,29.98,SE,145,0.0,0.0,79,0.00,,,0.00,weatherlink.com 1.10,2017-04-23 23:16:00,
2017-04-23 16:31:00,58.5,52.0,29.98,SSE,162,0.0,0.0,79,0.00,,,0.00,weatherlink.com 1.10,2017-04-23 23:31:00,
2017-04-23 16:46:00,58.7,52.0,29.97,South,181,0.0,0.0,78,0.00,,,0.00,weatherlink.com 1.10,2017-04-23 23:46:00,
2017-04-23 17:01:00,58.2,51.0,29.98,ESE,115,0.0,0.0,78,0.10,,,0.10,weatherlink.com 1.10,2017-04-24 00:01:00,
2017-04-23 17:16:00,58.0,51.0,29.98,WSW,240,0.0,0.0,78,0.16,,,0.16,weatherlink.com 1.10,2017-04-24 00:16:00,
2017-04-23 17:31:00,58.5,52.0,29.98,South,186,0.0,0.0,80,0.16,,,0.16,weatherlink.com 1.10,2017-04-24 00:31:00,
2017-04-23 17:46:00,57.5,50.0,29.98,SSE,158,0.0,0.0,77,0.16,,,0.16,weatherlink.com 1.10,2017-04-24 00:46:00,
2017-04-23 18:01:00,57.6,51.0,29.98,SE,124,0.0,3.0,78,0.02,,,0.18,weatherlink.com 1.10,2017-04-24 01:01:00,
2017-04-23 18:16:00,57.2,50.0,29.97,SSE,162,3.0,6.0,78,0.02,,,0.18,weatherlink.com 1.10,2017-04-24 01:16:00,
2017-04-23 18:31:00,56.4,49.0,29.96,ESE,107,1.0,10.0,75,0.02,,,0.18,weatherlink.com 1.10,2017-04-24 01:31:00,
2017-04-23 18:46:00,56.1,50.0,29.97,ESE,118,0.0,5.0,80,0.02,,,0.18,weatherlink.com 1.10,2017-04-24 01:46:00,
2017-04-23 19:01:00,54.5,50.0,29.97,SSE,149,0.0,3.0,84,0.00,,,0.18,weatherlink.com 1.10,2017-04-24 02:01:00,
2017-04-23 19:16:00,52.8,49.0,29.98,SW,219,4.0,13.0,86,0.00,,,0.18,weatherlink.com 1.10,2017-04-24 02:16:00,
2017-04-23 19:31:00,51.6,49.0,29.96,SSE,161,1.0,10.0,89,0.00,,,0.18,weatherlink.com 1.10,2017-04-24 02:31:00,
2017-04-23 19:46:00,51.0,49.0,29.97,SE,124,1.0,5.0,91,0.00,,,0.18,weatherlink.com 1.10,2017-04-24 02:46:00,
2017-04-23 20:01:00,50.5,48.0,29.96,South,180,0.0,1.0,91,0.00,,,0.18,weatherlink.com 1.10,2017-04-24 03:01:00,
2017-04-23 20:16:00,50.4,47.0,29.96,SSW,193,0.0,5.0,88,0.00,,,0.18,weatherlink.com 1.10,2017-04-24 03:16:00,
2017-04-23 20:31:00,49.9,47.0,29.97,ESE,115,0.0,2.0,91,0.00,,,0.18,weatherlink.com 1.10,2017-04-24 03:31:00,
2017-04-23 20:47:00,49.5,47.0,29.97,SE,141,0.0,3.0,92,0.00,,,0.18,weatherlink.com 1.10,2017-04-24 03:47:00,
2017-04-23 21:01:00,49.3,47.0,29.98,SE,134,0.0,5.0,92,0.00,,,0.18,weatherlink.com 1.10,2017-04-24 04:01:00,
2017-04-23 21:16:00,49.1,47.0,29.98,SE,138,0.0,1.0,93,0.00,,,0.18,weatherlink.com 1.10,2017-04-24 04:16:00,
2017-04-23 21:32:00,48.9,47.0,29.98,SE,128,0.0,0.0,93,0.00,,,0.18,weatherlink.com 1.10,2017-04-24 04:32:00,
2017-04-23 21:46:00,48.7,46.0,29.99,SSW,198,0.0,0.0,91,0.00,,,0.18,weatherlink.com 1.10,2017-04-24 04:46:00,
2017-04-23 22:01:00,48.8,46.0,29.99,ESE,122,0.0,3.0,90,0.00,,,0.18,weatherlink.com 1.10,2017-04-24 05:01:00,
2017-04-23 22:16:00,48.7,46.0,29.99,SE,145,0.0,1.0,89,0.00,,,0.18,weatherlink.com 1.10,2017-04-24 05:16:00,
2017-04-23 22:31:00,48.7,46.0,29.99,SE,130,0.0,2.0,91,0.00,,,0.18,weatherlink.com 1.10,2017-04-24 05:31:00,
2017-04-23 22:47:00,48.4,45.0,29.98,SSE,162,0.0,8.0,89,0.00,,,0.18,weatherlink.com 1.10,2017-04-24 05:47:00,
2017-04-23 23:02:00,48.3,45.0,29.98,ENE,74,1.0,7.0,89,0.00,,,0.18,weatherlink.com 1.10,2017-04-24 06:02:00,